CheckWX is a tool to help pilots better visualize weather data.  It is not intended as a substitute for an official pre-flight weather briefing.

17:57:12 UTC

M19 METAR
Newport Regional Airport
Newport, Arkansas, USA
Current

1 hour ago

KM19 171656Z AUTO VRB04KT 10SM CLR 14/06 A3012 RMK AO2 SLP199 T01390056
Observed
Oct-17 @ 16:56 UTC
Wind
  • Variable at 4 KTS
Visibility
10 SM
Flight Rules
VFR
Cloud Levels
  • Clear skies
Temperature
14°C / 57°F
Dewpoint
C / 43°F
Humidity
59%
Altimeter
30.12" Hg
Pressure
1020.02 hPa
Previous

2 hours ago

KM19 171556Z AUTO VRB04KT 10SM CLR 13/06 A3014 RMK AO2 SLP205 T01280056
Observed
Oct-17 @ 15:56 UTC
Wind
  • Variable at 4 KTS
Visibility
10 SM
Flight Rules
VFR
Cloud Levels
  • Clear skies
Temperature
13°C / 55°F
Dewpoint
C / 43°F
Humidity
63%
Altimeter
30.14" Hg
Pressure
1020.62 hPa
Previous

3 hours ago

KM19 171456Z AUTO 03007KT 10SM CLR 11/07 A3013 RMK AO2 SLP204 T01060067 50003
Observed
Oct-17 @ 14:56 UTC
Wind
  • 030° at 7 KTS
Visibility
10 SM
Flight Rules
VFR
Cloud Levels
  • Clear skies
Temperature
11°C / 52°F
Dewpoint
C / 45°F
Humidity
77%
Altimeter
30.13" Hg
Pressure
1020.32 hPa